LRSB

Sibiu International Airport

Airport
ICAO code
LRSB
IATA Code
SBZ
Summary
ICAO Region
EUR
ICAO Territory
Location

, Sibiu

Serving
Sibiu
Elevation
1496 ft
Coordinates
45° 47' 8" N , 24° 5' 29" E
Metar
LRSB 152000Z 21002KT CAVOK 14/12 Q1013

Runways

Designator Length Width Surface Rops
9/27 2000 30 CON No/No

Airport map

Aerial View

SKYbrary Partners:

Safety knowledge contributed by: